Time;durP1;ratioP1;P1;durP2;ratioP2;P2;SDS_P1;SDS_P2;PMS_P1;PMS_P2;Temp;Humidity;BMP_temperature;BMP_pressure;BME280_temperature;BME280_humidity;BME280_pressure;Samples;Min_cycle;Max_cycle;Signal;HPM_P1;HPM_P2
2023/09/22 00:01:16;;;;;;;2.33;1.00;;;13.10;99.90;;;;;;5099301;27;20308;-63
2023/09/22 00:03:42;;;;;;;0.85;0.60;;;13.20;99.90;;;;;;5098901;28;20054;-63
2023/09/22 00:06:07;;;;;;;;;;;13.20;99.90;;;;;;5104342;28;20046;-63
2023/09/22 00:08:33;;;;;;;3.00;0.95;;;13.20;99.90;;;;;;5103958;28;19928;-63
2023/09/22 00:10:58;;;;;;;4.30;1.10;;;13.20;99.90;;;;;;5104293;28;20526;-63
2023/09/22 00:13:24;;;;;;;;;;;13.20;99.90;;;;;;5102543;28;20032;-62
2023/09/22 00:15:50;;;;;;;1.55;0.90;;;13.20;99.90;;;;;;5104424;28;19916;-62
2023/09/22 00:18:15;;;;;;;5.38;0.93;;;13.20;99.90;;;;;;5091546;28;20036;-62
2023/09/22 00:20:41;;;;;;;;;;;13.30;99.90;;;;;;5088044;28;20032;-62
2023/09/22 00:23:07;;;;;;;;;;;13.30;99.90;;;;;;5089612;28;19938;-62
2023/09/22 00:25:33;;;;;;;;;;;13.30;99.90;;;;;;5089984;28;20489;-62
2023/09/22 00:27:58;;;;;;;;;;;13.30;99.90;;;;;;5090741;28;19923;-62
2023/09/22 00:30:26;;;;;;;;;;;13.30;99.90;;;;;;5084768;28;19916;-62
2023/09/22 00:32:52;;;;;;;;;;;13.30;99.90;;;;;;5086554;28;19912;-62
2023/09/22 00:35:17;;;;;;;;;;;13.30;99.90;;;;;;5083865;28;19978;-63
2023/09/22 00:37:43;;;;;;;;;;;13.40;99.90;;;;;;5090435;28;20005;-62
2023/09/22 00:40:09;;;;;;;;;;;13.30;99.90;;;;;;5090268;28;20297;-62
2023/09/22 00:42:34;;;;;;;;;;;13.30;99.90;;;;;;5089922;28;19962;-62
2023/09/22 00:45:00;;;;;;;;;;;13.40;99.90;;;;;;5090658;28;19927;-62
2023/09/22 00:47:25;;;;;;;;;;;13.40;99.90;;;;;;5090092;28;20456;-62
2023/09/22 00:49:53;;;;;;;;;;;13.40;99.90;;;;;;5089301;28;20022;-62
2023/09/22 00:52:19;;;;;;;;;;;13.40;99.90;;;;;;5090045;28;20387;-62
2023/09/22 00:54:45;;;;;;;;;;;13.40;99.90;;;;;;5090474;28;20402;-62
2023/09/22 00:57:11;;;;;;;;;;;13.30;99.90;;;;;;5085004;28;20384;-62
2023/09/22 00:59:37;;;;;;;;;;;13.40;99.90;;;;;;5089747;28;19938;-62
2023/09/22 01:02:02;;;;;;;;;;;13.50;99.90;;;;;;5089094;28;19924;-62
2023/09/22 01:04:28;;;;;;;;;;;13.50;99.90;;;;;;5089406;28;19920;-62
2023/09/22 01:06:54;;;;;;;;;;;13.50;99.90;;;;;;5083849;28;19920;-62
2023/09/22 01:09:20;;;;;;;;;;;13.40;99.90;;;;;;5089370;28;19973;-62
2023/09/22 01:11:45;;;;;;;;;;;13.50;99.90;;;;;;5089320;28;19916;-63
2023/09/22 01:14:11;;;;;;;;;;;13.40;99.90;;;;;;5090499;28;20306;-62
2023/09/22 01:16:37;;;;;;;;;;;13.50;99.90;;;;;;5089269;28;19916;-62
2023/09/22 01:19:10;;;;;;;;;;;13.30;99.90;;;;;;5089445;28;19920;-63
2023/09/22 01:21:35;;;;;;;;;;;13.40;99.90;;;;;;5087220;28;19923;-61
2023/09/22 01:24:01;;;;;;;;;;;13.40;99.90;;;;;;5086239;28;19917;-62
2023/09/22 01:26:27;;;;;;;;;;;13.40;99.90;;;;;;5086065;28;19963;-62
2023/09/22 01:28:52;;;;;;;;;;;13.50;99.90;;;;;;5089143;28;19969;-62
2023/09/22 01:31:18;;;;;;;;;;;13.40;99.90;;;;;;5088567;28;19919;-62
2023/09/22 01:33:46;;;;;;;;;;;13.30;99.90;;;;;;5088842;28;19935;-62
2023/09/22 01:36:13;;;;;;;;;;;13.30;99.90;;;;;;5089899;28;19920;-62
2023/09/22 01:38:39;;;;;;;;;;;13.30;99.90;;;;;;5089409;28;20379;-62
2023/09/22 01:41:06;;;;;;;;;;;13.20;99.90;;;;;;5089227;28;19946;-62
2023/09/22 01:43:32;;;;;;;;;;;13.20;99.90;;;;;;5088367;28;19947;-62
2023/09/22 01:45:57;;;;;;;;;;;13.20;99.90;;;;;;5089543;28;19958;-62
2023/09/22 01:48:23;;;;;;;;;;;13.20;99.90;;;;;;5088878;28;19951;-62
2023/09/22 01:50:48;;;;;;;;;;;13.30;99.90;;;;;;5086678;28;19916;-62
2023/09/22 01:53:14;;;;;;;;;;;13.20;99.90;;;;;;5088571;28;19931;-62
2023/09/22 01:55:40;;;;;;;;;;;13.20;99.90;;;;;;5089067;28;20094;-63
2023/09/22 01:58:10;;;;;;;;;;;13.20;99.90;;;;;;5088855;28;19916;-63
2023/09/22 02:00:36;;;;;;;;;;;13.20;99.90;;;;;;5085319;28;19939;-63
2023/09/22 02:03:02;;;;;;;;;;;13.20;99.90;;;;;;5088962;28;20375;-63
2023/09/22 02:05:27;;;;;;;;;;;13.20;99.90;;;;;;5088911;28;19924;-62
2023/09/22 02:07:53;;;;;;;;;;;13.10;99.90;;;;;;5086994;28;19920;-62
2023/09/22 02:10:19;;;;;;;;;;;13.10;99.90;;;;;;5090712;28;20331;-63
2023/09/22 02:12:45;;;;;;;;;;;13.10;99.90;;;;;;5085572;28;19920;-63
2023/09/22 02:15:11;;;;;;;;;;;13.10;99.90;;;;;;5088839;28;20278;-63
2023/09/22 02:17:37;;;;;;;;;;;13.10;99.90;;;;;;5088379;28;20311;-63
2023/09/22 02:20:17;;;;;;;;;;;12.90;99.90;;;;;;5093116;28;19927;-63
2023/09/22 02:22:47;;;;;;;;;;;12.90;99.90;;;;;;5085623;28;20290;-63
2023/09/22 02:25:15;;;;;;;;;;;13.00;99.90;;;;;;5087655;28;19916;-63
2023/09/22 02:27:41;;;;;;;;;;;13.00;99.90;;;;;;5083549;28;19920;-62
2023/09/22 02:30:08;;;;;;;;;;;13.00;99.90;;;;;;5087533;28;19927;-63
2023/09/22 02:32:34;;;;;;;;;;;13.00;99.90;;;;;;5084043;28;20355;-63
2023/09/22 02:34:59;;;;;;;;;;;13.00;99.90;;;;;;5087255;28;20393;-62
2023/09/22 02:37:25;;;;;;;;;;;12.90;99.90;;;;;;5087441;28;19924;-63
2023/09/22 02:39:50;;;;;;;;;;;12.80;99.90;;;;;;5086402;28;19942;-63
2023/09/22 02:42:17;;;;;;;;;;;12.80;99.90;;;;;;5086635;28;19927;-63
2023/09/22 02:44:42;;;;;;;;;;;12.70;99.90;;;;;;5086597;28;19970;-63
2023/09/22 02:47:08;;;;;;;;;;;12.80;99.90;;;;;;5087148;28;20330;-63
2023/09/22 02:49:33;;;;;;;;;;;12.60;99.90;;;;;;5085629;28;19928;-63
2023/09/22 02:51:58;;;;;;;;;;;12.60;99.90;;;;;;5087182;28;19920;-63
2023/09/22 02:54:24;;;;;;;;;;;12.60;99.90;;;;;;5086156;28;19924;-63
2023/09/22 02:56:49;;;;;;;;;;;12.60;99.90;;;;;;5082410;28;19923;-63
2023/09/22 02:59:15;;;;;;;;;;;12.60;99.90;;;;;;5086449;28;19920;-63
2023/09/22 03:01:43;;;;;;;;;;;12.60;99.90;;;;;;5085659;28;19942;-63
2023/09/22 03:04:09;;;;;;;;;;;12.50;99.90;;;;;;5086851;28;20022;-63
2023/09/22 03:06:37;;;;;;;;;;;12.50;99.90;;;;;;5086622;28;19915;-62
2023/09/22 03:09:09;;;;;;;;;;;12.40;99.90;;;;;;5086642;28;19924;-62
2023/09/22 03:11:35;;;;;;;;;;;12.40;99.90;;;;;;5084218;28;20127;-63
2023/09/22 03:14:00;;;;;;;;;;;12.30;99.90;;;;;;5082771;28;20383;-63
2023/09/22 03:16:29;;;;;;;;;;;12.30;99.90;;;;;;5086402;28;19923;-62
2023/09/22 03:18:57;;;;;;;;;;;12.10;99.90;;;;;;5083993;28;19969;-62
2023/09/22 03:21:23;;;;;;;;;;;12.20;99.90;;;;;;5083659;28;20018;-63
2023/09/22 03:23:53;;;;;;;;;;;12.10;99.90;;;;;;5084437;28;20003;-63
2023/09/22 03:26:19;;;;;;;;;;;12.10;99.90;;;;;;5080746;28;20283;-63
2023/09/22 03:28:44;;;;;;;;;;;12.10;99.90;;;;;;5085878;28;19928;-63
2023/09/22 03:31:10;;;;;;;;;;;12.10;99.90;;;;;;5085299;28;19916;-62
2023/09/22 03:33:36;;;;;;;;;;;12.10;99.90;;;;;;5085987;28;19973;-63
2023/09/22 03:36:01;;;;;;;;;;;12.00;99.90;;;;;;5087093;28;19916;-63
2023/09/22 03:38:28;;;;;;;;;;;12.00;99.90;;;;;;5085199;28;20410;-63
2023/09/22 03:41:00;;;;;;;;;;;12.00;99.90;;;;;;5085708;28;19969;-63
2023/09/22 03:43:26;;;;;;;;;;;11.90;99.90;;;;;;5083772;28;19916;-63
2023/09/22 03:45:55;;;;;;;;;;;11.90;99.90;;;;;;5084093;28;19975;-63
2023/09/22 03:48:22;;;;;;;;;;;12.00;99.90;;;;;;5083773;28;19928;-63
2023/09/22 03:50:48;;;;;;;;;;;12.00;99.90;;;;;;5084326;28;19919;-63
2023/09/22 03:53:13;;;;;;;;;;;12.00;99.90;;;;;;5087836;28;19924;-63
2023/09/22 03:55:39;;;;;;;;;;;12.00;99.90;;;;;;5089792;28;19916;-63
2023/09/22 03:58:05;;;;;;;;;;;11.90;99.90;;;;;;5090079;28;19955;-63
2023/09/22 04:00:30;;;;;;;;;;;11.90;99.90;;;;;;5092873;28;19997;-63
2023/09/22 04:02:56;;;;;;;;;;;11.90;99.90;;;;;;5089348;28;20416;-63
2023/09/22 04:05:22;;;;;;;;;;;11.90;99.90;;;;;;5089435;28;19919;-63
2023/09/22 04:07:47;;;;;;;;;;;11.90;99.90;;;;;;5087641;28;20418;-63
2023/09/22 04:10:13;;;;;;;;;;;11.90;99.90;;;;;;5086302;28;19949;-63
2023/09/22 04:12:38;;;;;;;;;;;11.90;99.90;;;;;;5087513;28;20006;-63
2023/09/22 04:15:04;;;;;;;;;;;11.90;99.90;;;;;;5087551;28;19991;-63
2023/09/22 04:17:34;;;;;;;;;;;11.90;99.90;;;;;;5090226;28;20574;-63
2023/09/22 04:20:00;;;;;;;;;;;11.70;99.90;;;;;;5089488;28;19920;-62
2023/09/22 04:22:28;;;;;;;;;;;11.80;99.90;;;;;;5089546;28;19920;-63
2023/09/22 04:25:00;;;;;;;;;;;11.80;99.90;;;;;;5092052;28;19927;-63
2023/09/22 04:27:32;;;;;;;;;;;11.90;99.90;;;;;;5089583;28;19927;-62
2023/09/22 04:30:00;;;;;;;;;;;11.80;99.90;;;;;;5087128;28;19927;-63
2023/09/22 04:32:33;;;;;;;;;;;11.80;99.90;;;;;;5089229;28;19989;-62
2023/09/22 04:35:02;;;;;;;;;;;11.90;99.90;;;;;;5089803;28;19959;-63
2023/09/22 04:37:28;;;;;;;;;;;11.80;99.90;;;;;;5090021;28;19924;-62
2023/09/22 04:39:54;;;;;;;;;;;11.90;99.90;;;;;;5089060;28;20393;-63
2023/09/22 04:42:20;;;;;;;;;;;11.90;99.90;;;;;;5093827;28;19923;-63
2023/09/22 04:44:46;;;;;;;;;;;11.80;99.90;;;;;;5086125;28;19915;-63
2023/09/22 04:47:11;;;;;;;;;;;11.90;99.90;;;;;;5090816;28;19966;-63
2023/09/22 04:49:37;;;;;;;;;;;11.90;99.90;;;;;;5090396;28;19980;-63
2023/09/22 04:52:03;;;;;;;;;;;11.90;99.90;;;;;;5091382;28;19927;-63
2023/09/22 04:54:29;;;;;;;;;;;11.90;99.90;;;;;;5090781;28;19930;-62
2023/09/22 04:56:55;;;;;;;;;;;11.90;99.90;;;;;;5089938;28;20395;-62
2023/09/22 04:59:20;;;;;;;;;;;11.80;99.90;;;;;;5081365;28;20015;-63
2023/09/22 05:01:46;;;;;;;;;;;11.80;99.90;;;;;;5083601;28;19916;-62
2023/09/22 05:04:11;;;;;;;;;;;11.70;99.90;;;;;;5087997;28;20426;-63
2023/09/22 05:06:37;;;;;;;;;;;11.70;99.90;;;;;;5090254;28;19915;-63
2023/09/22 05:09:03;;;;;;;;;;;11.70;99.90;;;;;;5092994;28;20004;-63
2023/09/22 05:11:28;;;;;;;;;;;11.70;99.90;;;;;;5089503;28;19927;-63
2023/09/22 05:13:54;;;;;;;;;;;11.70;99.90;;;;;;5089971;28;19931;-63
2023/09/22 05:16:20;;;;;;;;;;;11.70;99.90;;;;;;5088030;28;20014;-63
2023/09/22 05:18:46;;;;;;;;;;;11.80;99.90;;;;;;5082445;28;19926;-63
2023/09/22 05:21:12;;;;;;;;;;;11.80;99.90;;;;;;5082354;28;19923;-63
2023/09/22 05:23:38;;;;;;;;;;;11.80;99.90;;;;;;5084611;28;20423;-63
2023/09/22 05:26:05;;;;;;;;;;;11.80;99.90;;;;;;5081972;28;20473;-63
2023/09/22 05:28:31;;;;;;;;;;;11.90;99.90;;;;;;5084273;28;19955;-63
2023/09/22 05:30:57;;;;;;;;;;;11.90;99.90;;;;;;5079589;28;19955;-64
2023/09/22 05:33:22;;;;;;;;;;;12.00;99.90;;;;;;5086635;28;20306;-64
2023/09/22 05:35:48;;;;;;;;;;;11.90;99.90;;;;;;5087048;28;19923;-64
2023/09/22 05:38:13;;;;;;;;;;;12.00;99.90;;;;;;5082558;28;19930;-63
2023/09/22 05:40:39;;;;;;;;;;;11.90;99.90;;;;;;5083182;28;19916;-64
2023/09/22 05:43:05;;;;;;;;;;;11.90;99.90;;;;;;5086803;28;19919;-63
2023/09/22 05:45:31;;;;;;;;;;;11.90;99.90;;;;;;5087525;28;19920;-63
2023/09/22 05:47:56;;;;;;;;;;;11.90;99.90;;;;;;5092375;28;20026;-63
2023/09/22 05:50:23;;;;;;;;;;;11.90;99.90;;;;;;5087154;28;19920;-63
2023/09/22 05:52:49;;;;;;;;;;;11.90;99.90;;;;;;5087147;28;19924;-63
2023/09/22 05:55:15;;;;;;;;;;;11.80;99.90;;;;;;5088216;28;20494;-63
2023/09/22 05:57:40;;;;;;;;;;;11.80;99.90;;;;;;5085845;28;19969;-63
2023/09/22 06:00:15;;;;;;;;;;;11.70;99.90;;;;;;5088615;28;19931;-63
2023/09/22 06:02:44;;;;;;;;;;;11.70;99.90;;;;;;5085263;28;19935;-64
2023/09/22 06:05:10;;;;;;;;;;;11.60;99.90;;;;;;5081968;28;19921;-63
2023/09/22 06:07:35;;;;;;;;;;;11.70;99.90;;;;;;5085898;28;19915;-63
2023/09/22 06:10:05;;;;;;;;;;;11.70;99.90;;;;;;5082449;28;19966;-63
2023/09/22 06:12:31;;;;;;;;;;;11.80;99.90;;;;;;5087246;28;20002;-65
2023/09/22 06:14:59;;;;;;;;;;;11.80;99.90;;;;;;5084722;28;19917;-63
2023/09/22 06:17:25;;;;;;;;;;;11.80;99.90;;;;;;5089961;28;20691;-63
2023/09/22 06:19:51;;;;;;;;;;;11.80;99.90;;;;;;5087757;28;20283;-64
2023/09/22 06:22:17;;;;;;;;;;;11.80;99.90;;;;;;5088527;28;19937;-63
2023/09/22 06:24:43;;;;;;;;;;;11.90;99.90;;;;;;5084995;28;19922;-63
2023/09/22 06:27:08;;;;;;;;;;;12.00;99.90;;;;;;5084588;28;19997;-64
2023/09/22 06:29:34;;;;;;;;;;;12.00;99.90;;;;;;5085951;28;20001;-65
2023/09/22 06:31:59;;;;;;;;;;;12.00;99.90;;;;;;5084413;28;20563;-64
2023/09/22 06:34:25;;;;;;;;;;;12.00;99.90;;;;;;5087801;28;19920;-63
2023/09/22 06:36:50;;;;;;;;;;;12.00;99.90;;;;;;5088431;28;20391;-64
2023/09/22 06:39:16;;;;;;;;;;;12.00;99.90;;;;;;5088561;28;19999;-64
2023/09/22 06:41:42;;;;;;;;;;;12.10;99.90;;;;;;5085845;28;19923;-64
2023/09/22 06:44:08;;;;;;;;;;;12.10;99.90;;;;;;5086834;28;19920;-64
2023/09/22 06:46:35;;;;;;;;;;;12.10;99.90;;;;;;5082771;28;19942;-64
2023/09/22 06:49:07;;;;;;;;;;;12.20;99.90;;;;;;5088166;28;20012;-64
2023/09/22 06:51:33;;;;;;;;;;;12.10;99.90;;;;;;5082907;28;19973;-64
2023/09/22 06:53:59;;;;;;;;;;;12.10;99.90;;;;;;5081630;28;20012;-64
2023/09/22 06:56:25;;;;;;;;;;;12.20;99.90;;;;;;5081067;28;20302;-65
2023/09/22 06:58:51;;;;;;;;;;;12.20;99.90;;;;;;5085379;28;19920;-64
2023/09/22 07:01:16;;;;;;;;;;;12.30;99.90;;;;;;5082426;28;20384;-64
2023/09/22 07:03:43;;;;;;;;;;;12.30;99.90;;;;;;5083824;28;19924;-64
2023/09/22 07:06:10;;;;;;;;;;;12.30;99.90;;;;;;5084004;28;19916;-65
2023/09/22 07:08:36;;;;;;;;;;;12.40;99.90;;;;;;5082527;28;19934;-64
2023/09/22 07:11:05;;;;;;;;;;;12.40;99.90;;;;;;5086431;28;19915;-64
2023/09/22 07:13:30;;;;;;;;;;;12.40;99.90;;;;;;5087243;28;19920;-64
2023/09/22 07:15:57;;;;;;;;;;;12.40;99.90;;;;;;5087525;28;19926;-64
2023/09/22 07:18:23;;;;;;;;;;;12.50;99.90;;;;;;5088122;28;20387;-64
2023/09/22 07:20:49;;;;;;;;;;;12.60;99.90;;;;;;5086578;28;19923;-64
2023/09/22 07:23:14;;;;;;;;;;;12.60;99.90;;;;;;5087517;28;19920;-64
2023/09/22 07:25:40;;;;;;;;;;;12.60;99.90;;;;;;5086085;28;19916;-63
2023/09/22 07:28:07;;;;;;;;;;;12.60;99.90;;;;;;5086667;28;19920;-64
2023/09/22 07:30:34;;;;;;;;;;;12.60;99.90;;;;;;5088210;28;20360;-64
2023/09/22 07:33:00;;;;;;;;;;;12.70;99.90;;;;;;5093843;28;19931;-64
2023/09/22 07:35:26;;;;;;;;;;;12.60;99.90;;;;;;5091310;28;19920;-64
2023/09/22 07:37:52;;;;;;;;;;;12.60;99.90;;;;;;5091359;28;19920;-64
2023/09/22 07:40:17;;;;;;;;;;;12.50;99.90;;;;;;5086638;28;19919;-65
2023/09/22 07:42:44;;;;;;;;;;;12.60;99.90;;;;;;5090540;28;19920;-64
2023/09/22 07:45:10;;;;;;;;;;;12.50;99.90;;;;;;5090408;28;19955;-64
2023/09/22 07:47:37;;;;;;;;;;;12.60;99.90;;;;;;5091720;28;19951;-64
2023/09/22 07:50:03;;;;;;;;;;;12.50;99.90;;;;;;5088431;28;19927;-63
2023/09/22 07:52:29;;;;;;;;;;;12.50;99.90;;;;;;5091274;28;19924;-64
2023/09/22 07:54:54;;;;;;;;;;;12.50;99.90;;;;;;5086691;28;19966;-64
2023/09/22 07:57:19;;;;;;;;;;;12.60;99.90;;;;;;5091307;28;20406;-64
2023/09/22 07:59:45;;;;;;;;;;;12.70;99.90;;;;;;5085590;28;20029;-64
2023/09/22 08:02:11;;;;;;;;;;;12.70;99.90;;;;;;5085966;28;20006;-64
2023/09/22 08:04:36;;;;;;;;;;;12.70;99.90;;;;;;5090049;28;19916;-64
2023/09/22 08:07:03;;;;;;;;;;;12.80;99.90;;;;;;5090112;28;19916;-64
2023/09/22 08:09:28;;;;;;;;;;;12.80;99.90;;;;;;5090920;28;19981;-64
2023/09/22 08:11:54;;;;;;;;;;;12.90;99.90;;;;;;5090660;28;20511;-65
2023/09/22 08:14:21;;;;;;;;;;;12.90;99.90;;;;;;5090590;28;19923;-64
2023/09/22 08:16:48;;;;;;;;;;;13.00;99.90;;;;;;5091262;28;19969;-64
2023/09/22 08:19:14;;;;;;;;;;;13.10;99.90;;;;;;5095974;28;19916;-64
2023/09/22 08:21:40;;;;;;;;;;;13.10;99.90;;;;;;5091535;28;20363;-64
2023/09/22 08:24:07;;;;;;;;;;;13.10;99.90;;;;;;5092191;28;19945;-64
2023/09/22 08:26:33;;;;;;;;;;;13.10;99.90;;;;;;5090317;28;19920;-64
2023/09/22 08:28:59;;;;;;;;;;;13.20;99.90;;;;;;5081464;28;19920;-64
2023/09/22 08:31:26;;;;;;;;;;;13.20;99.90;;;;;;5085328;28;19920;-64
2023/09/22 08:33:52;;;;;;;;;;;13.30;99.90;;;;;;5090613;28;20010;-64
2023/09/22 08:36:17;;;;;;;;;;;13.30;99.90;;;;;;5090216;28;20023;-64
2023/09/22 08:38:43;;;;;;;;;;;13.30;99.90;;;;;;5089540;28;20073;-65
2023/09/22 08:41:08;;;;;;;;;;;13.30;99.90;;;;;;5088751;28;19927;-64
2023/09/22 08:43:35;;;;;;;;;;;13.50;99.90;;;;;;5091802;28;19947;-64
2023/09/22 08:46:00;;;;;;;;;;;13.40;99.90;;;;;;5089720;28;20267;-64
2023/09/22 08:48:26;;;;;;;;;;;13.30;99.90;;;;;;5090529;28;19920;-64
2023/09/22 08:50:52;;;;;;;;;;;13.30;99.90;;;;;;5089584;28;19920;-64
2023/09/22 08:53:17;;;;;;;;;;;13.30;99.90;;;;;;5089478;28;20586;-64
2023/09/22 08:55:43;;;;;;;;;;;13.30;99.90;;;;;;5091654;28;19990;-65
2023/09/22 08:58:08;;;;;;;;;;;13.30;99.90;;;;;;5086142;28;20475;-64
2023/09/22 09:00:35;;;;;;;;;;;13.40;99.90;;;;;;5090585;28;19930;-64
2023/09/22 09:03:08;;;;;;;;;;;13.40;99.90;;;;;;5089041;28;19920;-64
2023/09/22 09:05:33;;;;;;;;;;;13.30;99.90;;;;;;5090100;28;19920;-64
2023/09/22 09:08:12;;;;;;;;;;;13.40;99.90;;;;;;5089400;28;19920;-64
2023/09/22 09:10:38;;;;;;;;;;;13.40;99.90;;;;;;5088416;28;19923;-64
2023/09/22 09:13:05;;;;;;;;;;;13.40;99.90;;;;;;5089508;28;19947;-64
2023/09/22 09:15:42;;;;;;;;;;;13.30;99.90;;;;;;5089829;28;20452;-64
2023/09/22 09:18:09;;;;;;;;;;;13.40;99.90;;;;;;5087337;28;19923;-64
2023/09/22 09:20:35;;;;;;;;;;;13.40;99.90;;;;;;5087363;28;19951;-64
2023/09/22 09:23:14;;;;;;;;;;;13.50;99.90;;;;;;5084179;28;19963;-64
2023/09/22 09:25:42;;;;;;;;;;;13.50;99.90;;;;;;5088086;28;19916;-64
2023/09/22 09:28:08;;;;;;;;;;;13.60;99.90;;;;;;5085713;28;20405;-64
2023/09/22 09:30:33;;;;;;;;;;;13.60;99.90;;;;;;5088213;28;21427;-63
2023/09/22 09:33:09;;;;;;;;;;;13.60;99.90;;;;;;5089826;28;20200;-64
2023/09/22 09:35:38;;;;;;;;;;;13.70;99.90;;;;;;5081907;28;20038;-61
2023/09/22 09:38:05;;;;;;;;;;;13.80;99.90;;;;;;5082461;28;19920;-64
2023/09/22 09:40:32;;;;;;;;;;;14.00;99.90;;;;;;5088732;28;19926;-63
2023/09/22 09:42:58;;;;;;;;;;;14.00;99.90;;;;;;5086599;28;19916;-63
2023/09/22 09:45:24;;;;;;;;;;;14.00;99.90;;;;;;5088596;28;19916;-63
2023/09/22 09:47:54;;;;;;;;;;;14.10;99.90;;;;;;5089086;28;19926;-64
2023/09/22 09:50:20;;;;;;;;;;;14.10;99.90;;;;;;5088323;28;19924;-64
2023/09/22 09:52:53;;;;;;;;;;;14.20;99.90;;;;;;5087591;28;20387;-63
2023/09/22 09:55:20;;;;;;;;;;;14.40;99.90;;;;;;5089006;28;20043;-64
2023/09/22 09:57:46;;;;;;;;;;;14.60;99.90;;;;;;5087509;28;19920;-63
2023/09/22 10:00:19;;;;;;;;;;;14.80;99.90;;;;;;5086489;28;19926;-64
2023/09/22 10:02:45;;;;;;;;;;;15.00;99.90;;;;;;5087656;28;19930;-64
2023/09/22 10:05:17;;;;;;;;;;;14.90;99.90;;;;;;5087877;28;20021;-64
2023/09/22 10:07:44;;;;;;;;;;;14.80;99.90;;;;;;5087683;28;20400;-63
2023/09/22 10:10:10;;;;;;;;;;;14.80;99.90;;;;;;5089121;28;19920;-63
2023/09/22 10:12:36;;;;;;;;;;;15.00;99.90;;;;;;5087838;28;19916;-63
2023/09/22 10:15:04;;;;;;;;;;;15.00;99.90;;;;;;5089729;28;19977;-63
2023/09/22 10:17:30;;;;;;;;;;;15.20;99.90;;;;;;5086371;28;20003;-64
2023/09/22 10:19:56;;;;;;;;;;;15.50;99.90;;;;;;5087647;28;19947;-64
2023/09/22 10:22:22;;;;;;;;;;;15.70;99.90;;;;;;5089146;28;19924;-63
2023/09/22 10:25:06;;;;;;;;;;;15.70;99.90;;;;;;5089768;28;20380;-64
2023/09/22 10:27:52;;;;;;;;;;;15.70;99.90;;;;;;5089384;28;19920;-64
2023/09/22 10:30:17;;;;;;;;;;;15.70;99.90;;;;;;5085880;28;19962;-63
2023/09/22 10:32:45;;;;;;;;;;;15.50;99.90;;;;;;5087882;28;19955;-63
2023/09/22 10:35:12;;;;;;;;;;;15.30;99.90;;;;;;5088535;28;19916;-64
2023/09/22 10:37:55;;;;;;;;;;;15.30;99.90;;;;;;5086220;28;19926;-63
2023/09/22 10:40:22;;;;;;;;;;;15.50;99.90;;;;;;5083059;28;19923;-63
2023/09/22 10:42:52;;;;;;;;;;;15.60;99.90;;;;;;5085206;28;19916;-63
2023/09/22 10:45:19;;;;;;;;;;;15.80;99.90;;;;;;5082133;28;20295;-64
2023/09/22 10:47:46;;;;;;;;;;;15.50;99.90;;;;;;5087227;28;19978;-64
2023/09/22 10:50:16;;;;;;;;;;;15.40;99.90;;;;;;5087945;28;20446;-63
2023/09/22 10:52:53;;;;;;;;;;;15.60;99.90;;;;;;5087006;28;19923;-64
2023/09/22 10:55:28;;;;;;;;;;;15.90;99.90;;;;;;5087815;28;19943;-64
2023/09/22 10:57:55;;;;;;;;;;;15.90;99.90;;;;;;5083280;28;19915;-64
2023/09/22 11:00:22;;;;;;;;;;;15.90;99.90;;;;;;5085090;28;20394;-64
2023/09/22 11:02:47;;;;;;;;;;;15.80;99.90;;;;;;5087840;28;19936;-63
2023/09/22 11:05:13;;;;;;;;;;;15.80;99.90;;;;;;5087403;28;19916;-64
2023/09/22 11:07:40;;;;;;;;;;;15.60;99.90;;;;;;5087675;28;19970;-64
2023/09/22 11:10:07;;;;;;;;;;;15.70;99.90;;;;;;5087177;28;19924;-64
2023/09/22 11:12:32;;;;;;;;;;;15.90;99.90;;;;;;5086387;28;19998;-64
2023/09/22 11:15:00;;;;;;;;;;;16.00;99.90;;;;;;5086376;28;19920;-64
2023/09/22 11:17:47;;;;;;;;;;;16.00;99.90;;;;;;5086525;28;19920;-64
2023/09/22 11:20:22;;;;;;;;;;;16.30;99.90;;;;;;5082837;28;19920;-64
2023/09/22 11:22:48;;;;;;;;;;;16.40;99.90;;;;;;5083199;28;19955;-64
2023/09/22 11:25:14;;;;;;;;;;;16.10;99.90;;;;;;5087454;28;20009;-63
2023/09/22 11:27:40;;;;;;;;;;;16.00;99.90;;;;;;5085809;28;19926;-64
2023/09/22 11:30:09;;;;;;;;;;;15.90;99.90;;;;;;5085030;28;20396;-62
2023/09/22 11:32:34;;;;;;;;;;;15.90;99.90;;;;;;5084789;28;20022;-62
2023/09/22 11:35:00;;;;;;;;;;;15.90;99.90;;;;;;5079999;28;21002;-62
2023/09/22 11:37:32;;;;;;;;;;;15.80;99.90;;;;;;5084653;28;19942;-62
2023/09/22 11:40:00;;;;;;;;;;;15.80;99.90;;;;;;5084662;28;19924;-62
2023/09/22 11:42:25;;;;;;;;;;;15.80;99.90;;;;;;5086076;28;20333;-62
2023/09/22 11:45:00;;;;;;;;;;;15.90;99.90;;;;;;5086208;28;19995;-62
2023/09/22 11:47:26;;;;;;;;;;;16.00;99.90;;;;;;5085598;28;20307;-62
2023/09/22 11:49:52;;;;;;;;;;;16.00;99.90;;;;;;5087977;28;19931;-62
2023/09/22 11:52:27;;;;;;;;;;;16.00;99.90;;;;;;5086847;28;19920;-62
2023/09/22 11:54:53;;;;;;;;;;;15.90;99.90;;;;;;5082337;28;19927;-62
2023/09/22 11:57:19;;;;;;;;;;;15.90;99.90;;;;;;5087272;28;20379;-62
2023/09/22 11:59:46;;;;;;;;;;;16.10;99.90;;;;;;5086266;28;20729;-63
2023/09/22 12:02:12;;;;;;;;;;;16.40;99.90;;;;;;5086608;28;19919;-63
2023/09/22 12:04:37;;;;;;;;;;;16.50;99.90;;;;;;5086978;28;19919;-63
2023/09/22 12:07:03;;;;;;;;;;;16.50;99.90;;;;;;5087212;28;19916;-63
2023/09/22 12:09:29;;;;;;;;;;;16.30;99.90;;;;;;5088795;28;20044;-63
2023/09/22 12:11:55;;;;;;;;;;;16.40;99.90;;;;;;5085528;28;20498;-62
2023/09/22 12:14:22;;;;;;;;;;;16.50;99.90;;;;;;5089206;28;19920;-62
2023/09/22 12:16:47;;;;;;;;;;;16.50;99.90;;;;;;5089311;28;19955;-63
2023/09/22 12:19:14;;;;;;;;;;;16.70;99.90;;;;;;5085447;28;19967;-62
2023/09/22 12:21:39;;;;;;;;;;;16.80;99.90;;;;;;5088390;28;19965;-62
2023/09/22 12:24:05;;;;;;;;;;;16.80;99.90;;;;;;5089404;28;19924;-62
2023/09/22 12:26:30;;;;;;;;;;;16.70;99.90;;;;;;5087417;28;19920;-62
2023/09/22 12:28:56;;;;;;;;;;;16.70;99.90;;;;;;5088202;28;19924;-62
2023/09/22 12:31:21;;;;;;;;;;;16.40;99.90;;;;;;5089062;28;19924;-62
2023/09/22 12:33:47;;;;;;;;;;;16.40;99.90;;;;;;5090957;28;20268;-63
2023/09/22 12:36:14;;;;;;;;;;;16.30;99.90;;;;;;5090346;28;20006;-62
2023/09/22 12:38:40;;;;;;;;;;;16.10;99.90;;;;;;5091996;28;19919;-61
2023/09/22 12:41:06;;;;;;;;;;;15.90;99.90;;;;;;5088588;28;20327;-63
2023/09/22 12:43:31;;;;;;;;;;;16.10;99.90;;;;;;5084619;28;20329;-63
2023/09/22 12:45:57;;;;;;;;;;;16.40;99.90;;;;;;5090827;28;19916;-62
2023/09/22 12:48:23;;;;;;;;;;;16.40;99.90;;;;;;5090607;28;19946;-63
2023/09/22 12:50:52;;;;;;;;;;;16.80;99.90;;;;;;5089401;28;19916;-62
2023/09/22 12:53:18;;;;;;;;;;;16.80;99.90;;;;;;5089285;28;19963;-62
2023/09/22 12:55:44;;;;;;;;;;;17.00;99.90;;;;;;5090619;28;20509;-63
2023/09/22 12:58:09;;;;;;;;;;;16.80;99.90;;;;;;5088564;28;20398;-62
2023/09/22 13:00:43;;;;;;;;;;;16.50;99.90;;;;;;5082706;28;19916;-62
2023/09/22 13:03:10;;;;;;;;;;;16.60;99.90;;;;;;5090254;28;19920;-62
2023/09/22 13:05:41;;;;;;;;;;;16.80;99.90;;;;;;5087095;28;19923;-63
2023/09/22 13:08:07;;;;;;;;;;;16.80;99.80;;;;;;5090291;28;20284;-62
2023/09/22 13:10:33;;;;;;;;;;;16.70;99.30;;;;;;5088819;28;19923;-63
2023/09/22 13:12:59;;;;;;;;;;;16.50;99.80;;;;;;5086172;28;19927;-63
2023/09/22 13:15:25;;;;;;;;;;;16.70;99.90;;;;;;5084364;28;19916;-72
2023/09/22 13:17:50;;;;;;;;;;;16.90;99.90;;;;;;5087685;28;19928;-63
2023/09/22 13:20:16;;;;;;;;;;;17.00;98.70;;;;;;5082541;28;20003;-64
2023/09/22 13:22:44;;;;;;;;;;;17.00;97.70;;;;;;5084805;28;19955;-64
2023/09/22 13:25:09;;;;;;;;;;;16.90;97.30;;;;;;5083997;28;19923;-63
2023/09/22 13:27:35;;;;;;;;;;;16.80;98.30;;;;;;5084207;28;20394;-62
2023/09/22 13:30:01;;;;;;;;;;;16.80;98.30;;;;;;5089440;28;19924;-63
2023/09/22 13:32:26;;;;;;;;;;;16.60;97.70;;;;;;5087111;28;19916;-65
2023/09/22 13:34:51;;;;;;;;;;;16.40;97.80;;;;;;5089939;28;19931;-64
2023/09/22 13:37:18;;;;;;;;;;;16.20;99.10;;;;;;5089184;28;20264;-64
2023/09/22 13:39:44;;;;;;;;;;;16.30;99.50;;;;;;5082980;28;19923;-64
2023/09/22 13:42:10;;;;;;;;;;;16.50;99.80;;;;;;5089369;28;19920;-62
2023/09/22 13:44:35;;;;;;;;;;;16.50;99.00;;;;;;5087023;28;19919;-62
2023/09/22 13:47:02;;;;;;;;;;;16.30;99.40;;;;;;5087732;28;20473;-65
2023/09/22 13:49:28;;;;;;;;;;;16.30;98.80;;;;;;5088616;28;19931;-63
2023/09/22 13:51:53;;;;;;;;;;;16.20;98.50;;;;;;5089064;28;19916;-60
2023/09/22 13:54:19;;;;;;;;;;;16.10;99.20;;;;;;5087906;28;19920;-62
2023/09/22 13:56:44;;;;;;;;;;;16.00;99.30;;;;;;5088668;28;20500;-62
2023/09/22 13:59:10;;;;;;;;;;;15.90;99.90;;;;;;5087027;28;20000;-61
2023/09/22 14:01:36;;;;;;;;;;;15.90;99.60;;;;;;5087165;28;19973;-62
2023/09/22 14:04:01;;;;;;;;;;;15.80;99.80;;;;;;5089541;28;19966;-62
2023/09/22 14:06:27;;;;;;;;;;;15.80;99.90;;;;;;5085790;28;19926;-62
2023/09/22 14:08:53;;;;;;;;;;;15.80;99.90;;;;;;5087741;28;19920;-62
2023/09/22 14:11:19;;;;;;;;;;;15.80;99.90;;;;;;5089170;28;19988;-62
2023/09/22 14:13:45;;;;;;;;;;;15.80;99.90;;;;;;5088628;28;21310;-61